createdAt,value
2022-10-05T00:02:38.346Z,13.17
2022-10-05T00:05:41.021Z,12.80
2022-10-05T00:08:44.180Z,14.50
2022-10-05T00:11:49.304Z,8.73
2022-10-05T00:14:54.433Z,9.27
2022-10-05T00:17:57.017Z,9.80
2022-10-05T00:20:59.597Z,14.87
2022-10-05T00:24:02.492Z,8.73
2022-10-05T00:27:15.687Z,11.13
2022-10-05T00:30:20.178Z,9.73
2022-10-05T00:33:22.659Z,11.13
2022-10-05T00:36:26.096Z,9.87
2022-10-05T00:39:29.940Z,11.30
2022-10-05T00:42:47.785Z,9.97
2022-10-05T00:45:56.069Z,7.73
2022-10-05T00:49:04.177Z,11.73
2022-10-05T00:52:20.415Z,11.63
2022-10-05T00:55:33.507Z,8.83
2022-10-05T00:58:55.643Z,8.10
2022-10-05T01:02:03.857Z,9.47
2022-10-05T01:05:13.367Z,14.77
2022-10-05T01:08:28.908Z,13.50
2022-10-05T01:11:38.141Z,10.23
2022-10-05T01:14:48.113Z,8.03
2022-10-05T01:17:58.030Z,10.97
2022-10-05T01:21:07.157Z,13.13
2022-10-05T01:24:41.299Z,7.97
2022-10-05T01:27:51.850Z,11.07
2022-10-05T01:31:01.748Z,8.93
2022-10-05T01:34:11.428Z,11.57
2022-10-05T01:37:23.159Z,14.23
2022-10-05T01:40:34.854Z,11.87
2022-10-05T01:43:45.973Z,10.27
2022-10-05T01:46:56.445Z,11.63
2022-10-05T01:50:04.480Z,8.43
2022-10-05T01:53:13.645Z,8.93
2022-10-05T01:56:22.650Z,9.67
2022-10-05T01:59:34.951Z,9.67
2022-10-05T02:02:42.347Z,8.67
2022-10-05T02:05:51.470Z,11.60
2022-10-05T02:08:59.547Z,10.73
2022-10-05T02:12:07.664Z,9.50
2022-10-05T02:15:15.592Z,12.83
2022-10-05T02:18:22.130Z,8.43
2022-10-05T02:21:25.963Z,13.90
2022-10-05T02:24:33.314Z,7.40
2022-10-05T02:27:41.855Z,10.17
2022-10-05T02:30:50.121Z,12.50
2022-10-05T02:33:52.733Z,9.97
2022-10-05T02:37:15.452Z,8.73
2022-10-05T02:40:32.154Z,7.20
2022-10-05T02:43:45.421Z,10.27
2022-10-05T02:46:57.711Z,7.90
2022-10-05T02:50:09.223Z,8.87
2022-10-05T02:53:21.333Z,11.33
2022-10-05T02:56:30.930Z,12.47
2022-10-05T02:59:38.888Z,7.53
2022-10-05T03:02:48.476Z,10.30
2022-10-05T03:05:56.771Z,11.87
2022-10-05T03:09:03.879Z,9.53
2022-10-05T03:12:16.021Z,7.30
2022-10-05T03:15:32.268Z,7.90
2022-10-05T03:18:49.212Z,15.73
2022-10-05T03:21:59.784Z,11.80
2022-10-05T03:25:22.894Z,7.67
2022-10-05T03:28:33.596Z,10.13
2022-10-05T03:31:44.725Z,11.93
2022-10-05T03:34:53.875Z,13.73
2022-10-05T03:38:18.765Z,8.47
2022-10-05T03:41:27.871Z,10.07
2022-10-05T03:44:41.948Z,9.67
2022-10-05T03:47:50.917Z,8.00
2022-10-05T03:51:02.950Z,9.67
2022-10-05T03:54:12.705Z,6.47
2022-10-05T03:57:19.465Z,10.87
2022-10-05T04:00:24.223Z,7.20
2022-10-05T04:03:35.003Z,12.00
2022-10-05T04:06:46.455Z,8.73
2022-10-05T04:09:53.658Z,13.27
2022-10-05T04:13:02.237Z,13.63
2022-10-05T04:16:11.838Z,9.20
2022-10-05T04:19:19.032Z,9.83
2022-10-05T04:22:26.414Z,12.77
2022-10-05T04:25:33.146Z,10.97
2022-10-05T04:28:44.430Z,11.33
2022-10-05T04:31:58.390Z,10.63
2022-10-05T04:35:16.657Z,9.10
2022-10-05T04:38:28.947Z,14.00
2022-10-05T04:41:58.994Z,7.60
2022-10-05T04:45:09.347Z,10.57
2022-10-05T04:48:46.675Z,12.57
2022-10-05T04:51:57.429Z,10.53
2022-10-05T04:55:10.449Z,10.73
2022-10-05T04:58:23.896Z,12.03
2022-10-05T05:02:03.256Z,10.40
2022-10-05T05:05:28.311Z,12.33
2022-10-05T05:08:46.960Z,11.13
2022-10-05T05:12:04.665Z,8.80
2022-10-05T05:15:37.498Z,11.57
2022-10-05T05:19:13.850Z,11.20
2022-10-05T05:22:25.928Z,10.30
2022-10-05T05:25:40.725Z,15.50
2022-10-05T05:28:52.113Z,12.97
2022-10-05T05:32:01.396Z,13.40
2022-10-05T05:35:23.193Z,13.37
2022-10-05T05:38:32.290Z,13.20
2022-10-05T05:41:39.614Z,12.87
2022-10-05T05:44:48.893Z,13.20
2022-10-05T05:47:54.736Z,10.60
2022-10-05T05:51:01.392Z,11.47
2022-10-05T05:54:25.614Z,10.93
2022-10-05T05:57:32.978Z,11.93
2022-10-05T06:00:43.683Z,11.40
2022-10-05T06:03:49.883Z,9.93
2022-10-05T06:06:54.911Z,12.77
2022-10-05T06:10:02.577Z,12.23
2022-10-05T06:13:10.943Z,17.90
2022-10-05T06:16:20.572Z,15.13
2022-10-05T06:19:24.825Z,13.57
2022-10-05T06:22:33.570Z,12.20
2022-10-05T06:25:43.414Z,15.27
2022-10-05T06:28:51.629Z,15.77
2022-10-05T06:32:06.505Z,15.13
2022-10-05T06:35:17.406Z,12.97
2022-10-05T06:38:45.109Z,9.17
2022-10-05T06:42:02.706Z,14.10
2022-10-05T06:45:10.733Z,11.23
2022-10-05T06:48:21.945Z,11.97
2022-10-05T06:51:33.158Z,11.23
2022-10-05T06:54:46.063Z,15.57
2022-10-05T06:58:01.252Z,13.50
2022-10-05T07:01:10.619Z,14.73
2022-10-05T07:04:38.337Z,10.50
2022-10-05T07:07:47.931Z,12.07
2022-10-05T07:11:05.248Z,14.20
2022-10-05T07:14:23.561Z,12.40
2022-10-05T07:17:42.477Z,12.17
2022-10-05T07:20:55.413Z,13.30
2022-10-05T07:24:09.295Z,11.27
2022-10-05T07:27:18.233Z,12.43
2022-10-05T07:30:21.290Z,12.40
2022-10-05T07:33:29.895Z,12.53
2022-10-05T07:36:58.673Z,14.67
2022-10-05T07:40:11.507Z,12.23
2022-10-05T07:43:51.116Z,9.20
2022-10-05T07:46:57.299Z,11.23
2022-10-05T07:50:04.045Z,12.00
2022-10-05T07:53:16.661Z,13.03
2022-10-05T07:56:24.242Z,8.40
2022-10-05T07:59:33.515Z,9.10
2022-10-05T08:02:42.928Z,10.20
2022-10-05T08:05:47.141Z,9.23
2022-10-05T08:08:57.298Z,10.53
2022-10-05T08:12:08.605Z,10.30
2022-10-05T08:15:16.395Z,14.07
2022-10-05T08:18:37.438Z,11.27
2022-10-05T08:21:44.702Z,9.27
2022-10-05T08:24:58.715Z,9.53
2022-10-05T08:28:09.474Z,10.87
2022-10-05T08:31:20.621Z,9.10
2022-10-05T08:34:29.621Z,16.80
2022-10-05T08:37:35.448Z,10.90
2022-10-05T08:41:18.359Z,13.17
2022-10-05T08:44:55.958Z,8.47
2022-10-05T08:48:31.803Z,10.43
2022-10-05T08:51:50.476Z,12.27
2022-10-05T08:55:20.651Z,10.13
2022-10-05T08:58:58.331Z,9.00
2022-10-05T09:02:18.242Z,10.77
2022-10-05T09:05:51.550Z,14.20
2022-10-05T09:09:39.977Z,11.37
2022-10-05T09:13:12.364Z,11.20
2022-10-05T09:16:45.459Z,15.77
2022-10-05T09:20:00.790Z,11.33
2022-10-05T09:23:14.492Z,12.03
2022-10-05T09:26:44.270Z,9.77
2022-10-05T09:30:11.582Z,7.33
2022-10-05T09:33:33.673Z,8.03
2022-10-05T09:37:20.038Z,10.13
2022-10-05T09:40:59.917Z,9.13
2022-10-05T09:44:29.904Z,8.30
2022-10-05T09:48:00.856Z,8.23
2022-10-05T09:51:36.922Z,7.60
2022-10-05T09:55:14.372Z,7.30
2022-10-05T09:58:53.048Z,7.90
2022-10-05T10:02:14.016Z,7.93
2022-10-05T10:05:33.125Z,6.13
2022-10-05T10:08:46.564Z,7.43
2022-10-05T10:12:07.345Z,8.77
2022-10-05T10:15:34.213Z,10.30
2022-10-05T10:19:03.631Z,9.80
2022-10-05T10:22:22.808Z,7.73
2022-10-05T10:25:53.170Z,8.80
2022-10-05T10:29:16.915Z,6.30
2022-10-05T10:32:50.693Z,8.73
2022-10-05T10:36:01.658Z,8.53
2022-10-05T10:39:13.281Z,8.10
2022-10-05T10:42:33.334Z,7.70
2022-10-05T10:45:49.095Z,8.80
2022-10-05T10:49:10.353Z,9.67
2022-10-05T10:52:25.820Z,8.80
2022-10-05T10:55:33.363Z,6.20
2022-10-05T10:58:58.724Z,6.73
2022-10-05T11:02:26.991Z,7.07
2022-10-05T11:05:56.672Z,6.83
2022-10-05T11:09:19.856Z,6.53
2022-10-05T11:12:56.213Z,10.60
2022-10-05T11:16:22.171Z,7.63
2022-10-05T11:20:02.973Z,9.67
2022-10-05T11:23:34.160Z,9.80
2022-10-05T11:27:07.436Z,9.47
2022-10-05T11:30:52.953Z,5.97
2022-10-05T11:34:42.084Z,7.13
2022-10-05T11:38:07.521Z,7.83
2022-10-05T11:41:33.828Z,8.57
2022-10-05T11:45:11.779Z,5.83
2022-10-05T11:48:34.366Z,6.40
2022-10-05T11:51:49.353Z,5.83
2022-10-05T11:55:10.939Z,6.10
2022-10-05T11:58:20.920Z,4.67
2022-10-05T12:01:30.893Z,6.47
2022-10-05T12:04:46.213Z,6.27
2022-10-05T12:08:07.651Z,3.67
2022-10-05T12:11:30.529Z,6.03
2022-10-05T12:14:42.830Z,8.20
2022-10-05T12:17:51.537Z,5.40
2022-10-05T12:20:59.901Z,5.27
2022-10-05T12:24:14.023Z,10.17
2022-10-05T12:27:21.480Z,8.53
2022-10-05T12:30:33.672Z,5.90
2022-10-05T12:33:47.044Z,6.37
2022-10-05T12:37:04.425Z,8.53
2022-10-05T12:40:23.050Z,7.33
2022-10-05T12:43:34.340Z,7.53
2022-10-05T12:46:44.101Z,4.73
2022-10-05T12:50:02.914Z,8.20
2022-10-05T12:53:25.494Z,4.87
2022-10-05T12:56:40.685Z,4.87
2022-10-05T12:59:50.079Z,4.63
2022-10-05T13:02:58.953Z,7.03
2022-10-05T13:06:15.216Z,4.20
2022-10-05T13:09:23.921Z,3.87
2022-10-05T13:12:38.183Z,6.17
2022-10-05T13:15:50.631Z,5.77
2022-10-05T13:19:10.351Z,3.90
2022-10-05T13:22:36.692Z,2.73
2022-10-05T13:25:47.697Z,4.50
2022-10-05T13:28:58.381Z,5.93
2022-10-05T13:32:07.184Z,4.90
2022-10-05T13:35:28.505Z,4.77
2022-10-05T13:38:45.280Z,6.20
2022-10-05T13:41:54.399Z,4.20
2022-10-05T13:45:04.386Z,6.30
2022-10-05T13:48:19.792Z,4.90
2022-10-05T13:51:25.167Z,8.50
2022-10-05T13:54:37.259Z,10.23
2022-10-05T13:57:49.656Z,8.40
2022-10-05T14:00:56.451Z,7.13
2022-10-05T14:04:07.577Z,5.70
2022-10-05T14:07:24.782Z,4.70
2022-10-05T14:10:35.091Z,5.97
2022-10-05T14:13:47.743Z,4.77
2022-10-05T14:16:53.425Z,6.00
2022-10-05T14:19:59.749Z,5.20
2022-10-05T14:23:04.946Z,3.83
2022-10-05T14:26:18.968Z,4.10
2022-10-05T14:29:25.566Z,5.27
2022-10-05T14:32:32.367Z,3.43
2022-10-05T14:35:48.892Z,4.33
2022-10-05T14:38:53.931Z,4.60
2022-10-05T14:41:56.710Z,6.57
2022-10-05T14:45:01.011Z,5.77
2022-10-05T14:48:11.502Z,4.27
2022-10-05T14:51:25.441Z,4.23
2022-10-05T14:54:41.741Z,7.73
2022-10-05T14:57:54.019Z,8.83
2022-10-05T15:01:02.724Z,3.80
2022-10-05T15:04:24.896Z,9.00
2022-10-05T15:07:38.794Z,5.70
2022-10-05T15:10:43.905Z,6.23
2022-10-05T15:13:47.462Z,9.43
2022-10-05T15:16:53.738Z,5.03
2022-10-05T15:20:05.089Z,3.47
2022-10-05T15:23:24.779Z,7.17
2022-10-05T15:26:41.101Z,5.40
2022-10-05T15:29:56.473Z,3.80
2022-10-05T15:33:12.843Z,5.20
2022-10-05T15:36:19.845Z,4.23
2022-10-05T15:39:34.688Z,6.60
2022-10-05T15:42:39.340Z,3.63
2022-10-05T15:45:53.755Z,6.03
2022-10-05T15:49:08.268Z,7.87
2022-10-05T15:52:23.866Z,3.97
2022-10-05T15:55:35.119Z,5.97
2022-10-05T15:58:51.915Z,4.27
2022-10-05T16:02:00.761Z,4.00
2022-10-05T16:05:19.857Z,4.47
2022-10-05T16:08:50.535Z,3.53
2022-10-05T16:12:03.318Z,3.17
2022-10-05T16:15:18.588Z,4.00
2022-10-05T16:18:46.192Z,5.00
2022-10-05T16:21:59.579Z,4.77
2022-10-05T16:25:15.900Z,4.80
2022-10-05T16:28:29.750Z,4.73
2022-10-05T16:31:38.183Z,5.37
2022-10-05T16:34:54.306Z,4.57
2022-10-05T16:38:06.788Z,5.83
2022-10-05T16:41:17.538Z,8.17
2022-10-05T16:44:31.238Z,5.63
2022-10-05T16:47:43.923Z,5.20
2022-10-05T16:50:59.435Z,6.30
2022-10-05T16:54:12.923Z,4.70
2022-10-05T16:57:22.110Z,4.50
2022-10-05T17:00:29.883Z,3.70
2022-10-05T17:03:48.362Z,6.23
2022-10-05T17:07:07.714Z,7.77
2022-10-05T17:10:47.658Z,4.60
2022-10-05T17:14:20.128Z,4.83
2022-10-05T17:17:38.469Z,10.47
2022-10-05T17:20:49.116Z,4.17
2022-10-05T17:23:57.767Z,3.83
2022-10-05T17:27:17.695Z,5.13
2022-10-05T17:30:36.363Z,5.07
2022-10-05T17:34:26.343Z,5.10
2022-10-05T17:37:36.973Z,7.47
2022-10-05T17:40:40.356Z,8.93
2022-10-05T17:44:32.956Z,6.30
2022-10-05T17:47:57.599Z,7.27
2022-10-05T17:51:17.715Z,5.20
2022-10-05T17:54:40.654Z,3.57
2022-10-05T17:57:43.206Z,4.40
2022-10-05T18:01:14.204Z,5.60
2022-10-05T18:04:33.622Z,5.27
2022-10-05T18:07:37.282Z,9.03
2022-10-05T18:11:00.030Z,8.07
2022-10-05T18:14:19.211Z,5.07
2022-10-05T18:17:38.290Z,5.07
2022-10-05T18:20:44.675Z,3.53
2022-10-05T18:24:01.057Z,4.90
2022-10-05T18:27:15.638Z,8.83
2022-10-05T18:30:22.309Z,4.10
2022-10-05T18:34:13.146Z,4.90
2022-10-05T18:37:31.539Z,6.83
2022-10-05T18:40:43.120Z,5.70
2022-10-05T18:43:57.184Z,6.47
2022-10-05T18:47:07.039Z,5.83
2022-10-05T18:50:24.322Z,6.10
2022-10-05T18:53:38.284Z,8.17
2022-10-05T18:56:46.419Z,7.50
2022-10-05T18:59:58.259Z,5.93
2022-10-05T19:03:08.199Z,4.67
2022-10-05T19:06:19.479Z,4.23
2022-10-05T19:09:39.490Z,5.27
2022-10-05T19:12:54.719Z,3.20
2022-10-05T19:16:14.532Z,2.53
2022-10-05T19:19:35.802Z,8.30
2022-10-05T19:22:55.680Z,5.90
2022-10-05T19:26:09.951Z,4.13
2022-10-05T19:29:23.923Z,5.23
2022-10-05T19:32:38.887Z,4.93
2022-10-05T19:35:58.053Z,4.90
2022-10-05T19:39:07.998Z,4.73
2022-10-05T19:42:31.264Z,8.57
2022-10-05T19:45:40.105Z,6.70
2022-10-05T19:48:45.483Z,9.77
2022-10-05T19:51:50.976Z,5.60
2022-10-05T19:55:12.077Z,6.67
2022-10-05T19:58:21.454Z,6.97
2022-10-05T20:01:26.344Z,7.67
2022-10-05T20:04:37.461Z,4.90
2022-10-05T20:07:40.922Z,7.93
2022-10-05T20:10:44.162Z,4.93
2022-10-05T20:14:11.492Z,4.63
2022-10-05T20:17:44.705Z,6.53
2022-10-05T20:20:49.325Z,5.17
2022-10-05T20:24:07.189Z,4.50
2022-10-05T20:27:37.077Z,4.07
2022-10-05T20:30:39.578Z,3.77
2022-10-05T20:33:43.374Z,4.40
2022-10-05T20:36:45.997Z,5.90
2022-10-05T20:39:48.830Z,4.50
2022-10-05T20:42:51.587Z,4.20
2022-10-05T20:45:54.093Z,6.63
2022-10-05T20:48:58.468Z,4.17
2022-10-05T20:52:01.151Z,5.13
2022-10-05T20:55:04.249Z,4.90
2022-10-05T20:58:08.809Z,2.90
2022-10-05T21:01:18.908Z,4.53
2022-10-05T21:04:24.831Z,4.07
2022-10-05T21:07:27.372Z,4.23
2022-10-05T21:10:29.880Z,4.20
2022-10-05T21:13:32.370Z,3.97
2022-10-05T21:16:38.077Z,4.00
2022-10-05T21:19:42.055Z,4.27
2022-10-05T21:22:44.561Z,7.43
2022-10-05T21:25:48.613Z,5.80
2022-10-05T21:28:51.125Z,9.37
2022-10-05T21:31:53.685Z,3.60
2022-10-05T21:34:57.561Z,5.77
2022-10-05T21:38:00.045Z,3.50
2022-10-05T21:41:02.548Z,5.80
2022-10-05T21:44:06.214Z,8.53
2022-10-05T21:47:08.750Z,7.00
2022-10-05T21:50:12.686Z,5.83
2022-10-05T21:53:18.169Z,6.13
2022-10-05T21:56:24.027Z,5.63
2022-10-05T21:59:30.178Z,5.27
2022-10-05T22:02:32.676Z,6.03
2022-10-05T22:05:36.812Z,2.20
2022-10-05T22:08:39.421Z,6.13
2022-10-05T22:11:41.905Z,8.77
2022-10-05T22:14:44.579Z,3.23
2022-10-05T22:17:47.063Z,5.13
2022-10-05T22:20:51.324Z,10.20
2022-10-05T22:23:53.860Z,3.03
2022-10-05T22:26:56.408Z,3.77
2022-10-05T22:29:59.102Z,5.63
2022-10-05T22:33:01.625Z,4.43
2022-10-05T22:36:07.119Z,7.33
2022-10-05T22:39:09.873Z,5.20
2022-10-05T22:42:12.380Z,4.97
2022-10-05T22:45:15.053Z,5.80
2022-10-05T22:48:17.542Z,4.60
2022-10-05T22:51:21.389Z,5.37
2022-10-05T22:54:28.725Z,2.73
2022-10-05T22:57:38.747Z,5.30
2022-10-05T23:00:57.470Z,4.20
2022-10-05T23:04:00.412Z,9.27
2022-10-05T23:07:04.391Z,6.10
2022-10-05T23:10:08.598Z,6.00
2022-10-05T23:13:11.087Z,4.43
2022-10-05T23:16:15.237Z,3.70
2022-10-05T23:19:17.791Z,7.87
2022-10-05T23:22:22.037Z,6.40
2022-10-05T23:25:25.534Z,5.63
2022-10-05T23:28:28.847Z,2.93
2022-10-05T23:31:33.435Z,1.97
2022-10-05T23:34:36.029Z,2.27
2022-10-05T23:37:40.894Z,2.27
2022-10-05T23:40:47.355Z,2.43
2022-10-05T23:43:50.585Z,4.30
2022-10-05T23:46:53.083Z,3.33
2022-10-05T23:49:56.155Z,1.70
2022-10-05T23:52:59.986Z,1.97
2022-10-05T23:56:02.790Z,1.60
2022-10-05T23:59:05.283Z,4.30
